Accueil
METAR-TAF:

METAR-TAF

Aéroports :

Aéroport de Castres-Mazamet

Castres, France

latitude: 43-33-25N, longitude: 2-17-21E, altitude: 239 m

Observation

Le bulletin a été fait il y a 39 minutes, à 08:00 UTC
Vent 4 kt de nord
Température 4°C
Humidité 93%
Pression 1038 hPa
Visibilité 10 km ou plus
Ciel couvert à une hauteur de 900 ft

METAR: LFCK 050800Z AUTO 35004KT 9999 OVC009 04/03 Q1038 TEMPO OVC004

Heure: 09:39 (08:39 UTC)

Prévision

Le bulletin a été fait il y a 3 heures et 39 minutes, à 05:00 UTC
Prévision valable du 05 à 06 UTC au 05 à 15 UTC
Vent 5 kt de ouest/nord-ouest
Visibilité 10 km ou plus
Ciel couvert à une hauteur de 800 ft
Temporairement
du 05 à 06 UTC au 05 à 09 UTC
Ciel couvert à une hauteur de 400 ft

TAF: LFCK 050500Z 0506/0515 30005KT 9999 OVC008 TEMPO 0506/0509 OVC004

Observations et prévisions météorologiques de plus de 4000 aéroports (messages METAR et TAF).

Les stations disponibles sont représentées par des disques jaunes et rouges sur la carte.

Passer la souris dessus pour voir le nom de la station.

Cliquer dessus pour voir les observations et prévisions météorologiques.

Pour changer de carte: cliquez sur les boutons verts avec une croix noire pour zoomer, sur le bouton vert avec un tiret pour effectuer un zoom arrière, ou sur les flèches vertes pour les cartes adjacentes.


METAR-TAF: